Time;durP1;ratioP1;P1;durP2;ratioP2;P2;SDS_P1;SDS_P2;PMS_P1;PMS_P2;Temp;Humidity;BMP_temperature;BMP_pressure;BME280_temperature;BME280_humidity;BME280_pressure;Samples;Min_cycle;Max_cycle;Signal;HPM_P1;HPM_P2
2022/10/24 00:00:42;;;;;;;18.98;11.43;;;;;;;;;;1730042;83;21463;-74
2022/10/24 00:03:08;;;;;;;19.42;12.20;;;;;;;;;;1730379;82;20901;-74
2022/10/24 00:05:42;;;;;;;33.35;24.47;;;;;;;;;;1730120;82;20881;-73
2022/10/24 00:08:08;;;;;;;35.20;28.85;;;;;;;;;;1730295;83;20921;-74
2022/10/24 00:10:36;;;;;;;40.43;31.95;;;;;;;;;;1730245;82;21149;-73
2022/10/24 00:13:03;;;;;;;39.27;28.62;;;;;;;;;;1713829;83;20889;-74
2022/10/24 00:15:31;;;;;;;36.55;28.10;;;;;;;;;;1730283;82;21380;-74
2022/10/24 00:17:59;;;;;;;34.78;23.62;;;;;;;;;;1730121;82;28443;-74
2022/10/24 00:20:26;;;;;;;28.92;23.07;;;;;;;;;;1730002;82;20893;-74
2022/10/24 00:22:54;;;;;;;29.45;18.85;;;;;;;;;;1730147;82;21376;-74
2022/10/24 00:25:20;;;;;;;26.48;16.25;;;;;;;;;;1730178;82;20872;-75
2022/10/24 00:27:48;;;;;;;23.38;13.95;;;;;;;;;;1730510;83;20849;-74
2022/10/24 00:30:14;;;;;;;21.10;14.23;;;;;;;;;;1730253;83;21458;-74
2022/10/24 00:32:40;;;;;;;19.98;13.05;;;;;;;;;;1730100;82;20861;-74
2022/10/24 00:35:07;;;;;;;19.52;14.23;;;;;;;;;;1730335;83;21376;-74
2022/10/24 00:37:35;;;;;;;;;;;;;;;;;;1732513;82;20928;-74
2022/10/24 00:40:02;;;;;;;18.05;12.78;;;;;;;;;;1730672;83;20137;-74
2022/10/24 00:42:28;;;;;;;19.37;12.90;;;;;;;;;;1730001;82;21395;-75
2022/10/24 00:44:55;;;;;;;17.80;13.30;;;;;;;;;;1729991;83;20896;-75
2022/10/24 00:47:23;;;;;;;17.27;13.30;;;;;;;;;;1730226;83;21083;-75
2022/10/24 00:50:00;;;;;;;16.62;12.20;;;;;;;;;;1730070;82;20956;-76
2022/10/24 00:52:25;;;;;;;17.37;12.18;;;;;;;;;;1713698;82;20929;-75
2022/10/24 00:54:53;;;;;;;17.50;12.03;;;;;;;;;;1714013;83;20957;-72
2022/10/24 00:57:34;;;;;;;17.25;12.20;;;;;;;;;;1731497;82;21427;-73
2022/10/24 01:00:04;;;;;;;13.78;12.15;;;;;;;;;;1730342;82;21097;-73
2022/10/24 01:02:31;;;;;;;16.30;11.70;;;;;;;;;;1730101;82;20953;-73
2022/10/24 01:04:58;;;;;;;18.80;12.65;;;;;;;;;;1730159;83;20865;-73
2022/10/24 01:07:36;;;;;;;17.32;13.22;;;;;;;;;;1730461;83;20988;-73
2022/10/24 01:10:28;;;;;;;16.17;11.90;;;;;;;;;;1730133;82;20889;-72
2022/10/24 01:12:58;;;;;;;18.55;12.70;;;;;;;;;;1730282;82;21089;-72
2022/10/24 01:15:35;;;;;;;14.90;12.28;;;;;;;;;;1730082;83;20916;-72
2022/10/24 01:18:22;;;;;;;16.82;13.30;;;;;;;;;;1730382;82;21415;-72
2022/10/24 01:21:23;;;;;;;14.13;12.63;;;;;;;;;;1730321;83;20845;-72
2022/10/24 01:23:54;;;;;;;17.82;12.20;;;;;;;;;;1730378;83;20925;-72
2022/10/24 01:26:35;;;;;;;17.20;11.48;;;;;;;;;;1730097;83;21101;-72
2022/10/24 01:29:09;;;;;;;14.87;12.13;;;;;;;;;;1730421;83;20896;-72
2022/10/24 01:31:48;;;;;;;16.77;13.32;;;;;;;;;;1730225;82;20912;-72
2022/10/24 01:34:28;;;;;;;17.60;12.35;;;;;;;;;;1763668;81;20877;-73
2022/10/24 01:37:02;;;;;;;15.83;11.43;;;;;;;;;;1730308;83;21530;-73
2022/10/24 01:39:31;;;;;;;19.48;12.63;;;;;;;;;;1730570;83;21766;-72
2022/10/24 01:41:57;;;;;;;13.62;11.30;;;;;;;;;;1730029;83;20881;-72
2022/10/24 01:44:27;;;;;;;18.05;12.98;;;;;;;;;;1730350;82;20893;-72
2022/10/24 01:47:02;;;;;;;17.48;11.05;;;;;;;;;;1730086;82;20961;-72
2022/10/24 01:49:31;;;;;;;22.65;16.87;;;;;;;;;;1730091;82;20892;-72
2022/10/24 01:51:59;;;;;;;18.12;13.10;;;;;;;;;;1730158;83;21206;-72
2022/10/24 01:54:26;;;;;;;16.57;12.50;;;;;;;;;;1713981;83;20908;-72
2022/10/24 01:56:52;;;;;;;16.02;12.50;;;;;;;;;;1730040;83;20972;-72
2022/10/24 01:59:28;;;;;;;18.85;13.08;;;;;;;;;;1730417;83;20873;-72
2022/10/24 02:02:01;;;;;;;19.23;12.58;;;;;;;;;;1730127;83;20936;-72
2022/10/24 02:04:29;;;;;;;15.68;12.45;;;;;;;;;;1729902;82;21052;-72
2022/10/24 02:06:56;;;;;;;15.68;12.88;;;;;;;;;;1730143;82;20940;-72
2022/10/24 02:09:23;;;;;;;17.50;12.60;;;;;;;;;;1713883;83;20885;-72
2022/10/24 02:11:49;;;;;;;19.05;13.53;;;;;;;;;;1730133;83;20881;-72
2022/10/24 02:14:20;;;;;;;16.82;12.88;;;;;;;;;;1714253;83;20936;-72
2022/10/24 02:16:47;;;;;;;20.27;12.88;;;;;;;;;;1730157;83;21189;-72
2022/10/24 02:19:13;;;;;;;19.23;14.65;;;;;;;;;;1730267;82;21463;-73
2022/10/24 02:22:01;;;;;;;16.90;12.93;;;;;;;;;;1730062;82;20877;-72
2022/10/24 02:24:32;;;;;;;14.05;12.55;;;;;;;;;;1730426;82;20873;-72
2022/10/24 02:27:17;;;;;;;19.45;13.62;;;;;;;;;;1730282;82;20901;-72
2022/10/24 02:29:56;;;;;;;17.35;12.10;;;;;;;;;;1713860;83;21083;-72
2022/10/24 02:32:26;;;;;;;23.12;13.80;;;;;;;;;;1730187;82;20908;-72
2022/10/24 02:34:52;;;;;;;19.12;14.23;;;;;;;;;;1730424;82;20873;-73
2022/10/24 02:37:19;;;;;;;17.73;14.58;;;;;;;;;;1730091;83;20881;-73
2022/10/24 02:39:46;;;;;;;22.55;15.15;;;;;;;;;;1730072;83;20901;-73
2022/10/24 02:42:13;;;;;;;22.27;15.60;;;;;;;;;;1730794;83;21105;-72
2022/10/24 02:44:41;;;;;;;23.73;15.00;;;;;;;;;;1730173;83;20933;-73
2022/10/24 02:47:07;;;;;;;19.15;15.13;;;;;;;;;;1730063;83;20900;-73
2022/10/24 02:49:34;;;;;;;22.58;16.20;;;;;;;;;;1730151;83;20937;-72
2022/10/24 02:52:00;;;;;;;22.35;17.40;;;;;;;;;;1730251;83;21510;-73
2022/10/24 02:54:27;;;;;;;25.17;18.10;;;;;;;;;;1730446;82;21086;-73
2022/10/24 02:56:56;;;;;;;26.68;17.82;;;;;;;;;;1730024;83;20920;-74
2022/10/24 02:59:22;;;;;;;23.67;17.67;;;;;;;;;;1730364;82;21399;-73
2022/10/24 03:01:48;;;;;;;20.80;17.62;;;;;;;;;;1730157;83;20925;-74
2022/10/24 03:04:15;;;;;;;27.58;18.07;;;;;;;;;;1730154;83;21430;-73
2022/10/24 03:06:42;;;;;;;24.23;17.65;;;;;;;;;;1730217;82;21081;-73
2022/10/24 03:09:08;;;;;;;26.85;17.80;;;;;;;;;;1730262;82;20881;-73
2022/10/24 03:11:36;;;;;;;32.40;19.10;;;;;;;;;;1730429;82;20842;-73
2022/10/24 03:14:03;;;;;;;24.57;17.60;;;;;;;;;;1730243;82;20873;-74
2022/10/24 03:16:29;;;;;;;34.10;24.82;;;;;;;;;;1730590;82;20897;-73
2022/10/24 03:18:56;;;;;;;23.40;19.73;;;;;;;;;;1730285;82;21195;-74
2022/10/24 03:21:23;;;;;;;28.50;20.52;;;;;;;;;;1730345;83;20920;-73
2022/10/24 03:23:49;;;;;;;28.23;17.73;;;;;;;;;;1730014;83;20941;-74
2022/10/24 03:26:16;;;;;;;28.05;18.92;;;;;;;;;;1730454;83;20920;-73
2022/10/24 03:28:43;;;;;;;24.05;17.23;;;;;;;;;;1730583;82;20854;-73
2022/10/24 03:31:09;;;;;;;25.30;18.80;;;;;;;;;;1732488;83;21181;-73
2022/10/24 03:33:36;;;;;;;29.65;20.32;;;;;;;;;;1730781;83;20933;-73
2022/10/24 03:36:03;;;;;;;27.27;18.52;;;;;;;;;;1730011;82;20853;-74
2022/10/24 03:38:29;;;;;;;34.40;22.67;;;;;;;;;;1730274;82;20947;-73
2022/10/24 03:40:56;;;;;;;26.70;17.92;;;;;;;;;;1730317;83;20882;-74
2022/10/24 03:43:23;;;;;;;34.25;19.67;;;;;;;;;;1729987;83;21102;-73
2022/10/24 03:45:49;;;;;;;28.92;20.23;;;;;;;;;;1730192;83;20908;-74
2022/10/24 03:48:15;;;;;;;29.48;19.12;;;;;;;;;;1730218;83;20881;-74
2022/10/24 03:50:41;;;;;;;25.45;17.92;;;;;;;;;;1729974;83;20924;-73
2022/10/24 03:53:08;;;;;;;26.70;18.95;;;;;;;;;;1730503;83;20900;-73
2022/10/24 03:55:35;;;;;;;23.60;17.60;;;;;;;;;;1730281;83;21085;-73
2022/10/24 03:58:01;;;;;;;25.20;17.85;;;;;;;;;;1729995;83;20901;-73
2022/10/24 04:00:28;;;;;;;22.90;17.32;;;;;;;;;;1730276;83;20912;-75
2022/10/24 04:02:55;;;;;;;22.35;17.62;;;;;;;;;;1730307;82;20951;-72
2022/10/24 04:05:21;;;;;;;27.62;17.90;;;;;;;;;;1730106;82;20897;-73
2022/10/24 04:07:49;;;;;;;29.72;18.98;;;;;;;;;;1730512;83;21727;-73
2022/10/24 04:10:16;;;;;;;29.07;18.00;;;;;;;;;;1730027;82;20916;-73
2022/10/24 04:12:42;;;;;;;24.52;17.92;;;;;;;;;;1730333;82;20857;-73
2022/10/24 04:15:09;;;;;;;24.43;18.10;;;;;;;;;;1730407;82;21403;-73
2022/10/24 04:17:37;;;;;;;24.75;17.75;;;;;;;;;;1730280;83;20861;-73
2022/10/24 04:20:04;;;;;;;23.77;17.73;;;;;;;;;;1730263;83;21077;-73
2022/10/24 04:22:31;;;;;;;21.93;17.63;;;;;;;;;;1730439;82;20877;-74
2022/10/24 04:24:57;;;;;;;23.67;16.60;;;;;;;;;;1730314;83;20920;-74
2022/10/24 04:27:23;;;;;;;22.30;16.45;;;;;;;;;;1730087;83;20873;-75
2022/10/24 04:29:50;;;;;;;20.70;15.45;;;;;;;;;;1730096;83;20861;-74
2022/10/24 04:32:16;;;;;;;20.35;16.62;;;;;;;;;;1730213;83;21419;-74
2022/10/24 04:34:44;;;;;;;20.83;17.10;;;;;;;;;;1730456;83;21395;-75
2022/10/24 04:37:10;;;;;;;27.50;17.70;;;;;;;;;;1730210;83;21419;-74
2022/10/24 04:39:36;;;;;;;21.60;15.75;;;;;;;;;;1730258;82;21435;-74
2022/10/24 04:42:04;;;;;;;21.23;17.07;;;;;;;;;;1730379;82;20988;-74
2022/10/24 04:44:31;;;;;;;24.27;15.95;;;;;;;;;;1730229;83;21093;-74
2022/10/24 04:46:58;;;;;;;23.60;15.10;;;;;;;;;;1730459;83;21422;-75
2022/10/24 04:49:25;;;;;;;24.35;16.62;;;;;;;;;;1730141;82;20905;-75
2022/10/24 04:51:51;;;;;;;22.70;15.10;;;;;;;;;;1730481;82;21482;-75
2022/10/24 04:54:17;;;;;;;22.15;15.75;;;;;;;;;;1730379;83;20932;-75
2022/10/24 04:56:44;;;;;;;21.73;15.98;;;;;;;;;;1730473;83;21061;-74
2022/10/24 04:59:10;;;;;;;26.10;16.20;;;;;;;;;;1730163;83;20850;-74
2022/10/24 05:01:36;;;;;;;19.35;15.45;;;;;;;;;;1730476;83;20909;-74
2022/10/24 05:04:03;;;;;;;27.30;17.20;;;;;;;;;;1730316;82;21465;-73
2022/10/24 05:06:29;;;;;;;22.55;16.60;;;;;;;;;;1730421;83;20901;-73
2022/10/24 05:08:56;;;;;;;22.77;16.17;;;;;;;;;;1730102;82;21092;-71
2022/10/24 05:11:22;;;;;;;20.68;15.45;;;;;;;;;;1730395;82;20881;-71
2022/10/24 05:13:49;;;;;;;18.65;14.95;;;;;;;;;;1730147;82;20924;-76
2022/10/24 05:16:16;;;;;;;23.45;15.75;;;;;;;;;;1730373;82;20873;-73
2022/10/24 05:18:42;;;;;;;24.50;15.83;;;;;;;;;;1730142;82;20949;-74
2022/10/24 05:21:10;;;;;;;22.60;16.12;;;;;;;;;;1730691;82;22187;-74
2022/10/24 05:23:37;;;;;;;20.68;14.70;;;;;;;;;;1730125;83;20896;-75
2022/10/24 05:26:04;;;;;;;18.52;14.33;;;;;;;;;;1730488;83;21447;-74
2022/10/24 05:28:31;;;;;;;26.87;15.88;;;;;;;;;;1730166;83;20917;-74
2022/10/24 05:30:57;;;;;;;22.42;16.02;;;;;;;;;;1730106;83;20936;-75
2022/10/24 05:33:23;;;;;;;18.27;15.03;;;;;;;;;;1730376;83;21082;-74
2022/10/24 05:35:50;;;;;;;24.27;14.87;;;;;;;;;;1730033;83;20924;-75
2022/10/24 05:38:17;;;;;;;19.82;15.65;;;;;;;;;;1730325;82;20881;-74
2022/10/24 05:40:46;;;;;;;21.12;15.45;;;;;;;;;;1730109;82;20912;-74
2022/10/24 05:43:11;;;;;;;23.77;17.87;;;;;;;;;;1730622;81;20901;-74
2022/10/24 05:45:38;;;;;;;22.22;16.42;;;;;;;;;;1730217;83;21111;-74
2022/10/24 05:48:05;;;;;;;25.35;17.92;;;;;;;;;;1730374;82;20921;-74
2022/10/24 05:50:33;;;;;;;24.63;16.85;;;;;;;;;;1730168;83;20880;-74
2022/10/24 05:53:00;;;;;;;24.02;16.57;;;;;;;;;;1764261;81;20928;-76
2022/10/24 05:55:27;;;;;;;23.42;16.77;;;;;;;;;;1730094;83;20849;-74
2022/10/24 05:57:53;;;;;;;28.17;17.25;;;;;;;;;;1730295;83;21030;-74
2022/10/24 06:00:20;;;;;;;25.92;17.40;;;;;;;;;;1730133;82;20917;-74
2022/10/24 06:02:46;;;;;;;27.20;17.60;;;;;;;;;;1730477;82;20925;-72
2022/10/24 06:05:13;;;;;;;25.15;16.27;;;;;;;;;;1730811;83;20920;-74
2022/10/24 06:07:40;;;;;;;38.90;19.55;;;;;;;;;;1730917;83;20881;-74
2022/10/24 06:10:09;;;;;;;27.82;18.05;;;;;;;;;;1730133;82;21392;-73
2022/10/24 06:12:35;;;;;;;26.62;18.62;;;;;;;;;;1730400;83;20888;-73
2022/10/24 06:15:03;;;;;;;27.17;16.77;;;;;;;;;;1730167;82;21431;-72
2022/10/24 06:17:30;;;;;;;27.22;17.37;;;;;;;;;;1730373;83;20890;-72
2022/10/24 06:19:56;;;;;;;29.80;17.70;;;;;;;;;;1730228;82;20869;-73
2022/10/24 06:22:23;;;;;;;23.70;16.85;;;;;;;;;;1730049;83;21725;-72
2022/10/24 06:24:50;;;;;;;24.27;17.17;;;;;;;;;;1730714;83;21478;-72
2022/10/24 06:27:17;;;;;;;24.20;17.37;;;;;;;;;;1730270;83;20846;-73
2022/10/24 06:29:43;;;;;;;27.85;18.27;;;;;;;;;;1730379;83;20940;-73
2022/10/24 06:32:09;;;;;;;27.98;17.30;;;;;;;;;;1730115;83;20905;-73
2022/10/24 06:34:36;;;;;;;37.13;18.82;;;;;;;;;;1730411;83;21078;-72
2022/10/24 06:37:02;;;;;;;29.05;18.73;;;;;;;;;;1730009;82;21442;-72
2022/10/24 06:39:28;;;;;;;29.30;17.73;;;;;;;;;;1730520;82;20901;-73
2022/10/24 06:41:55;;;;;;;28.15;18.40;;;;;;;;;;1730125;83;20845;-72
2022/10/24 06:44:23;;;;;;;32.40;16.52;;;;;;;;;;1730554;81;20865;-73
2022/10/24 06:46:50;;;;;;;27.42;18.35;;;;;;;;;;1730172;83;21244;-73
2022/10/24 06:49:16;;;;;;;44.15;19.60;;;;;;;;;;1730056;83;20861;-73
2022/10/24 06:51:43;;;;;;;26.27;17.07;;;;;;;;;;1763540;81;20877;-72
2022/10/24 06:54:09;;;;;;;34.73;20.15;;;;;;;;;;1729969;83;20884;-73
2022/10/24 06:56:36;;;;;;;33.23;21.27;;;;;;;;;;1730639;83;20865;-73
2022/10/24 06:59:10;;;;;;;40.95;22.50;;;;;;;;;;1730174;82;20861;-73
2022/10/24 07:01:36;;;;;;;38.23;19.48;;;;;;;;;;1728996;82;20912;-73
2022/10/24 07:04:04;;;;;;;31.37;19.87;;;;;;;;;;1730280;82;20889;-74
2022/10/24 07:06:31;;;;;;;35.20;21.05;;;;;;;;;;1730372;83;20837;-76
2022/10/24 07:08:58;;;;;;;35.35;19.75;;;;;;;;;;1730042;83;20928;-74
2022/10/24 07:11:24;;;;;;;40.28;21.50;;;;;;;;;;1730389;82;21774;-74
2022/10/24 07:13:51;;;;;;;35.73;23.02;;;;;;;;;;1730442;83;20850;-74
2022/10/24 07:16:18;;;;;;;40.48;22.58;;;;;;;;;;1730109;82;20881;-75
2022/10/24 07:18:46;;;;;;;49.00;22.70;;;;;;;;;;1730366;82;20928;-74
2022/10/24 07:21:15;;;;;;;39.08;21.85;;;;;;;;;;1730407;82;21437;-73
2022/10/24 07:23:41;;;;;;;32.48;20.92;;;;;;;;;;1729652;82;21077;-76
2022/10/24 07:26:09;;;;;;;30.17;19.67;;;;;;;;;;1730232;83;20929;-74
2022/10/24 07:28:36;;;;;;;30.82;18.98;;;;;;;;;;1730500;83;21410;-73
2022/10/24 07:31:02;;;;;;;28.38;17.73;;;;;;;;;;1730078;83;20933;-73
2022/10/24 07:33:29;;;;;;;27.02;17.10;;;;;;;;;;1730307;83;21423;-73
2022/10/24 07:35:55;;;;;;;23.07;15.85;;;;;;;;;;1730438;83;21414;-71
2022/10/24 07:38:21;;;;;;;24.77;17.23;;;;;;;;;;1730021;82;21458;-72
2022/10/24 07:40:48;;;;;;;28.27;17.23;;;;;;;;;;1730378;83;20841;-74
2022/10/24 07:43:14;;;;;;;27.75;16.90;;;;;;;;;;1713835;83;20857;-73
2022/10/24 07:45:40;;;;;;;30.32;18.40;;;;;;;;;;1730049;82;20897;-74
2022/10/24 07:48:08;;;;;;;32.50;20.05;;;;;;;;;;1730330;83;21085;-75
2022/10/24 07:50:43;;;;;;;34.83;20.65;;;;;;;;;;1730022;81;20951;-75
2022/10/24 07:53:11;;;;;;;26.97;19.32;;;;;;;;;;1732403;81;20896;-74
2022/10/24 07:55:38;;;;;;;27.82;18.73;;;;;;;;;;1731700;81;21443;-73
2022/10/24 07:58:05;;;;;;;32.30;19.45;;;;;;;;;;1737936;81;21502;-74
2022/10/24 08:00:31;;;;;;;28.52;18.00;;;;;;;;;;1730331;83;21099;-74
2022/10/24 08:02:58;;;;;;;85.45;39.23;;;;;;;;;;1730112;82;20830;-73
2022/10/24 08:05:24;;;;;;;29.18;19.05;;;;;;;;;;1730224;83;20865;-74
2022/10/24 08:07:52;;;;;;;26.33;18.67;;;;;;;;;;1730112;82;20980;-75
2022/10/24 08:10:18;;;;;;;33.63;19.52;;;;;;;;;;1732810;81;21404;-74
2022/10/24 08:12:44;;;;;;;32.65;22.48;;;;;;;;;;1730203;83;22038;-73
2022/10/24 08:15:11;;;;;;;29.23;20.20;;;;;;;;;;1730177;83;20874;-75
2022/10/24 08:17:39;;;;;;;40.63;24.57;;;;;;;;;;1730203;82;20866;-76
2022/10/24 08:20:06;;;;;;;31.52;20.17;;;;;;;;;;1730403;82;20945;-75
2022/10/24 08:22:33;;;;;;;33.73;20.62;;;;;;;;;;1730220;82;20952;-77
2022/10/24 08:25:00;;;;;;;29.95;20.72;;;;;;;;;;1730235;83;21045;-76
2022/10/24 08:27:27;;;;;;;32.50;21.02;;;;;;;;;;1730043;83;37310;-75
2022/10/24 08:29:54;;;;;;;37.35;23.42;;;;;;;;;;1690156;83;20936;-76
2022/10/24 08:32:21;;;;;;;54.35;40.33;;;;;;;;;;1730370;83;20953;-74
2022/10/24 08:34:47;;;;;;;35.00;22.30;;;;;;;;;;1730209;83;21453;-72
2022/10/24 08:37:13;;;;;;;36.73;25.12;;;;;;;;;;1730154;82;21223;-76
2022/10/24 08:39:40;;;;;;;40.83;24.32;;;;;;;;;;1731697;83;20869;-75
2022/10/24 08:42:09;;;;;;;33.35;20.43;;;;;;;;;;1730430;83;20912;-74
2022/10/24 08:44:36;;;;;;;28.92;19.32;;;;;;;;;;1730037;82;20937;-73
2022/10/24 08:47:18;;;;;;;33.33;20.30;;;;;;;;;;1757253;81;20885;-72
2022/10/24 08:49:54;;;;;;;26.12;18.65;;;;;;;;;;1760507;81;21746;-71
2022/10/24 08:52:47;;;;;;;39.23;19.73;;;;;;;;;;1760345;81;20965;-75
2022/10/24 08:55:17;;;;;;;27.55;18.90;;;;;;;;;;1760176;81;20841;-75
2022/10/24 08:57:45;;;;;;;23.87;18.75;;;;;;;;;;1760786;81;21416;-75
2022/10/24 09:00:18;;;;;;;24.65;17.52;;;;;;;;;;1760298;81;21427;-76
2022/10/24 09:02:47;;;;;;;33.58;21.48;;;;;;;;;;1760411;81;21132;-77
2022/10/24 09:05:31;;;;;;;27.10;19.35;;;;;;;;;;1760218;81;20882;-74
2022/10/24 09:08:02;;;;;;;26.05;18.45;;;;;;;;;;1760447;81;21443;-75
2022/10/24 09:10:36;;;;;;;35.70;22.80;;;;;;;;;;1760330;81;20865;-74
2022/10/24 09:13:11;;;;;;;34.83;20.17;;;;;;;;;;1760368;81;20941;-76
2022/10/24 09:15:37;;;;;;;29.72;18.30;;;;;;;;;;1760350;81;21200;-75
2022/10/24 09:18:07;;;;;;;26.95;17.73;;;;;;;;;;1718968;81;20936;-72
2022/10/24 09:20:34;;;;;;;25.55;18.25;;;;;;;;;;1760188;81;20920;-73
2022/10/24 09:23:03;;;;;;;21.37;15.40;;;;;;;;;;1760849;81;20928;-73
2022/10/24 09:25:33;;;;;;;22.20;14.80;;;;;;;;;;1760407;81;20893;-75
2022/10/24 09:28:03;;;;;;;23.47;17.65;;;;;;;;;;1760329;81;21092;-72
2022/10/24 09:34:11;;;;;;;26.68;17.85;;;;;;;;;;1760498;81;20913;-75
2022/10/24 09:40:33;;;;;;;26.75;16.52;;;;;;;;;;1761245;81;20929;-74
2022/10/24 09:46:55;;;;;;;24.87;16.42;;;;;;;;;;1728730;81;20885;-75
2022/10/24 09:53:11;;;;;;;25.75;17.10;;;;;;;;;;1722590;83;20942;-76
2022/10/24 09:59:35;;;;;;;27.25;18.00;;;;;;;;;;1722578;83;20917;-75
2022/10/24 10:05:59;;;;;;;24.72;17.50;;;;;;;;;;1722495;83;20913;-75
2022/10/24 10:12:33;;;;;;;31.10;20.00;;;;;;;;;;1722966;83;20929;-75
